Flight Track Log - Related Links

Times and Time Zones

All times are in EDT time to prevent confusion due to time zone crossing. See the SKW7367 flight status page for this flight to view local times or setup timezone preferences in your user account.

Time Position Orientation Groundspeed Altitude Reporting Facility
EDT Latitude Longitude Course Direction KTS MPH feet Rate Location/Type
Fri 04:02:45 PM 42.2061 -83.3672 North 152 175 1,200  Level Cleveland Center
Fri 04:03:16 PM 42.1897 -83.3903 226° Southwest 173 199 2,300 2,292 Climbing Cleveland Center
Fri 04:04:14 PM 42.1594 -83.4361 228° Southwest 204 235 4,600 3,150 Climbing Cleveland Center
Fri 04:05:16 PM 42.1781 -83.5358 284° West 257 296 8,600 2,565 Climbing Cleveland Center
Fri 04:06:00 PM 42.5602 -83.3500 North  Level FlightAware Approximate
Fri 04:06:18 PM 42.2219 -83.6089 309° West 270 311 9,900  Level Cleveland Center
Fri 04:07:00 PM 42.6502 -83.3500 North  Level FlightAware Approximate
Fri 04:07:21 PM 42.2978 -83.6269 350° North 279 321 11,200  Level Cleveland Center
Fri 04:08:00 PM 42.7403 -83.3500 North  Level FlightAware Approximate
Fri 04:08:23 PM 42.3781 -83.6014 13° North 295 339 12,900  Level Cleveland Center
Fri 04:09:25 PM 42.4808 -83.5572 18° North 317 365 13,900 968 Climbing Cleveland Center
Fri 04:10:27 PM 42.5656 -83.5200 18° North 317 365 14,900 484 Climbing Cleveland Center
Fri 04:11:29 PM 42.6494 -83.5033 North 308 354 14,900 48 Level Cleveland Center
Fri 04:12:31 PM 42.7375 -83.5075 358° North 311 358 15,000  Climbing Cleveland Center
Fri 04:13:33 PM 42.8247 -83.5078 360° North 312 359 14,900  Descending Cleveland Center
Fri 04:14:35 PM 42.9128 -83.5106 359° North 315 362 15,000  Climbing Cleveland Center
Fri 04:15:37 PM 43.0167 -83.5125 359° North 313 360 14,900 -48 Descending Cleveland Center
Fri 04:16:40 PM 43.1028 -83.5131 360° North 311 358 14,900  Level Cleveland Center
Fri 04:17:42 PM 43.1881 -83.5161 359° North 309 356 14,900  Level Cleveland Center
Fri 04:18:44 PM 43.2742 -83.5178 359° North 309 356 14,900 48 Level Cleveland Center
Fri 04:19:46 PM 43.3597 -83.5208 359° North 309 356 15,000  Climbing Cleveland Center
Fri 04:20:48 PM 43.4467 -83.5217 360° North 309 356 14,900  Descending Cleveland Center
Fri 04:21:50 PM 43.5514 -83.5247 359° North 312 359 15,000 48 Climbing Cleveland Center
Fri 04:22:52 PM 43.6389 -83.5253 360° North 313 360 15,000  Level Cleveland Center
Fri 04:23:54 PM 43.7267 -83.5283 359° North 313 360 15,000  Level Cleveland Center
Fri 04:24:56 PM 43.8142 -83.5283 360° North 313 360 15,000 -528 Level Cleveland Center
Fri 04:25:59 PM 43.9011 -83.5328 358° North 313 360 13,900 -1,008 Descending Cleveland Center
Fri 04:27:01 PM 43.9869 -83.5347 359° North 313 360 12,900 -1,065 Descending Cleveland Center
Fri 04:28:03 PM 44.0858 -83.5364 359° North 303 349 11,700 -871 Descending Cleveland Center
Fri 04:29:05 PM 44.1539 -83.5408 357° North 291 335 11,100 -1,016 Descending Cleveland Center
Fri 04:30:07 PM 44.2500 -83.5403 360° North 293 337 9,600 -1,151 Descending Cleveland Center
Fri 04:31:31 PM 44.3519 -83.5425 359° North 284 327 8,300 -986 Descending Minneapolis Center
Fri 04:32:33 PM 44.4328 -83.5444 359° North 276 318 7,200 -1,016 Descending Minneapolis Center
Fri 04:33:35 PM 44.5153 -83.5456 359° North 276 318 6,200 -677 Descending Minneapolis Center
Fri 04:34:37 PM 44.5892 -83.5483 358° North 273 314 5,800 -726 Descending Minneapolis Center
Fri 04:35:39 PM 44.6700 -83.5492 360° North 273 314 4,700 -823 Descending Minneapolis Center
Fri 04:36:41 PM 44.7408 -83.5536 357° North 266 306 4,100 -532 Descending Minneapolis Center
Fri 04:37:43 PM 44.8189 -83.5575 358° North 264 304 3,600 -484 Descending Minneapolis Center
Fri 04:38:45 PM 44.8892 -83.5597 359° North 261 300 3,100 -387 Descending Minneapolis Center
Fri 04:39:47 PM 44.9636 -83.5600 360° North 254 292 2,800 -581 Descending Minneapolis Center
Fri 04:40:49 PM 45.0106 -83.5611 359° North 181 208 1,900 -823 Descending Minneapolis Center
Fri 04:41:51 PM 45.0481 -83.5611 360° North 136 157 1,100 -576 Descending Minneapolis Center
Fri 04:42:54 PM 45.0803 -83.5611 360° North 135 155 700 -381 Descending Minneapolis Center

Login

Don't have an account? Register now (free) for customized features, flight alerts, and more!